sensor_id;sensor_type;location;lat;lon;timestamp;temperature;humidity
51661;DHT22;37741;49.748;8.490;2023-02-24T00:01:10;10.40;81.60
51661;DHT22;37741;49.748;8.490;2023-02-24T00:03:37;10.40;81.90
51661;DHT22;37741;49.748;8.490;2023-02-24T00:06:05;10.50;82.10
51661;DHT22;37741;49.748;8.490;2023-02-24T00:08:37;10.40;81.90
51661;DHT22;37741;49.748;8.490;2023-02-24T00:11:11;10.40;82.20
51661;DHT22;37741;49.748;8.490;2023-02-24T00:13:39;10.40;82.40
51661;DHT22;37741;49.748;8.490;2023-02-24T00:16:06;10.40;82.30
51661;DHT22;37741;49.748;8.490;2023-02-24T00:18:32;10.40;82.10
51661;DHT22;37741;49.748;8.490;2023-02-24T00:21:06;10.40;82.40
51661;DHT22;37741;49.748;8.490;2023-02-24T00:23:37;10.30;82.30
51661;DHT22;37741;49.748;8.490;2023-02-24T00:26:05;10.30;82.00
51661;DHT22;37741;49.748;8.490;2023-02-24T00:28:35;10.30;82.20
51661;DHT22;37741;49.748;8.490;2023-02-24T00:31:09;10.30;82.20
51661;DHT22;37741;49.748;8.490;2023-02-24T00:33:36;10.30;82.30
51661;DHT22;37741;49.748;8.490;2023-02-24T00:36:09;10.30;82.30
51661;DHT22;37741;49.748;8.490;2023-02-24T00:38:36;10.30;82.40
51661;DHT22;37741;49.748;8.490;2023-02-24T00:41:10;10.20;82.30
51661;DHT22;37741;49.748;8.490;2023-02-24T00:43:39;10.30;82.50
51661;DHT22;37741;49.748;8.490;2023-02-24T00:46:05;10.30;82.60
51661;DHT22;37741;49.748;8.490;2023-02-24T00:48:36;10.20;82.40
51661;DHT22;37741;49.748;8.490;2023-02-24T00:51:11;10.20;82.60
51661;DHT22;37741;49.748;8.490;2023-02-24T00:53:37;10.20;82.80
51661;DHT22;37741;49.748;8.490;2023-02-24T00:56:05;10.20;82.60
51661;DHT22;37741;49.748;8.490;2023-02-24T00:58:40;10.20;82.50
51661;DHT22;37741;49.748;8.490;2023-02-24T01:01:15;10.20;83.00
51661;DHT22;37741;49.748;8.490;2023-02-24T01:03:42;10.20;83.00
51661;DHT22;37741;49.748;8.490;2023-02-24T01:06:09;10.20;83.30
51661;DHT22;37741;49.748;8.490;2023-02-24T01:08:37;10.20;83.20
51661;DHT22;37741;49.748;8.490;2023-02-24T01:11:05;10.20;83.20
51661;DHT22;37741;49.748;8.490;2023-02-24T01:13:49;10.20;83.30
51661;DHT22;37741;49.748;8.490;2023-02-24T01:16:15;10.20;83.20
51661;DHT22;37741;49.748;8.490;2023-02-24T01:18:46;10.20;83.30
51661;DHT22;37741;49.748;8.490;2023-02-24T01:21:13;10.20;83.40
51661;DHT22;37741;49.748;8.490;2023-02-24T01:23:41;10.20;83.30
51661;DHT22;37741;49.748;8.490;2023-02-24T01:26:07;10.20;83.40
51661;DHT22;37741;49.748;8.490;2023-02-24T01:28:33;10.20;83.40
51661;DHT22;37741;49.748;8.490;2023-02-24T01:31:04;10.10;83.30
51661;DHT22;37741;49.748;8.490;2023-02-24T01:33:31;10.10;83.00
51661;DHT22;37741;49.748;8.490;2023-02-24T01:36:11;10.10;83.20
51661;DHT22;37741;49.748;8.490;2023-02-24T01:38:37;10.10;83.30
51661;DHT22;37741;49.748;8.490;2023-02-24T01:41:04;10.10;83.30
51661;DHT22;37741;49.748;8.490;2023-02-24T01:43:33;10.10;83.80
51661;DHT22;37741;49.748;8.490;2023-02-24T01:45:58;10.10;83.50
51661;DHT22;37741;49.748;8.490;2023-02-24T01:48:25;10.10;83.70
51661;DHT22;37741;49.748;8.490;2023-02-24T01:50:51;10.10;83.70
51661;DHT22;37741;49.748;8.490;2023-02-24T01:53:18;10.00;83.70
51661;DHT22;37741;49.748;8.490;2023-02-24T01:55:46;10.00;83.40
51661;DHT22;37741;49.748;8.490;2023-02-24T01:58:32;10.00;83.80
51661;DHT22;37741;49.748;8.490;2023-02-24T02:00:58;10.00;83.70
51661;DHT22;37741;49.748;8.490;2023-02-24T02:03:32;10.00;83.90
51661;DHT22;37741;49.748;8.490;2023-02-24T02:06:04;10.00;83.90
51661;DHT22;37741;49.748;8.490;2023-02-24T02:08:31;10.00;84.00
51661;DHT22;37741;49.748;8.490;2023-02-24T02:11:01;10.00;84.30
51661;DHT22;37741;49.748;8.490;2023-02-24T02:13:28;10.00;84.20
51661;DHT22;37741;49.748;8.490;2023-02-24T02:22:00;9.90;84.00
51661;DHT22;37741;49.748;8.490;2023-02-24T02:24:51;9.90;83.10
51661;DHT22;37741;49.748;8.490;2023-02-24T02:28:18;9.90;83.40
51661;DHT22;37741;49.748;8.490;2023-02-24T02:31:05;9.90;83.70
51661;DHT22;37741;49.748;8.490;2023-02-24T02:38:54;9.80;84.00
51661;DHT22;37741;49.748;8.490;2023-02-24T02:41:28;9.80;83.80
51661;DHT22;37741;49.748;8.490;2023-02-24T02:44:13;9.80;84.10
51661;DHT22;37741;49.748;8.490;2023-02-24T02:49:29;9.80;84.40
51661;DHT22;37741;49.748;8.490;2023-02-24T02:52:02;9.80;84.70
51661;DHT22;37741;49.748;8.490;2023-02-24T02:54:38;9.80;84.50
51661;DHT22;37741;49.748;8.490;2023-02-24T02:57:19;9.80;84.50
51661;DHT22;37741;49.748;8.490;2023-02-24T02:59:55;9.80;84.50
51661;DHT22;37741;49.748;8.490;2023-02-24T03:02:25;9.70;84.50
51661;DHT22;37741;49.748;8.490;2023-02-24T03:04:57;9.70;84.50
51661;DHT22;37741;49.748;8.490;2023-02-24T03:07:26;9.80;84.70
51661;DHT22;37741;49.748;8.490;2023-02-24T03:09:58;9.80;84.70
51661;DHT22;37741;49.748;8.490;2023-02-24T03:12:27;9.70;84.50
51661;DHT22;37741;49.748;8.490;2023-02-24T03:15:02;9.70;84.50
51661;DHT22;37741;49.748;8.490;2023-02-24T03:17:34;9.70;84.10
51661;DHT22;37741;49.748;8.490;2023-02-24T03:20:16;9.70;84.30
51661;DHT22;37741;49.748;8.490;2023-02-24T03:22:46;9.70;84.40
51661;DHT22;37741;49.748;8.490;2023-02-24T03:25:21;9.70;84.30
51661;DHT22;37741;49.748;8.490;2023-02-24T03:27:52;9.70;84.50
51661;DHT22;37741;49.748;8.490;2023-02-24T03:30:26;9.70;84.30
51661;DHT22;37741;49.748;8.490;2023-02-24T03:33:17;9.70;84.40
51661;DHT22;37741;49.748;8.490;2023-02-24T03:35:44;9.70;84.60
51661;DHT22;37741;49.748;8.490;2023-02-24T03:38:10;9.60;84.40
51661;DHT22;37741;49.748;8.490;2023-02-24T03:40:39;9.70;84.60
51661;DHT22;37741;49.748;8.490;2023-02-24T03:43:31;9.70;84.90
51661;DHT22;37741;49.748;8.490;2023-02-24T03:45:58;9.60;84.80
51661;DHT22;37741;49.748;8.490;2023-02-24T03:48:27;9.70;84.70
51661;DHT22;37741;49.748;8.490;2023-02-24T03:50:53;9.60;84.70
51661;DHT22;37741;49.748;8.490;2023-02-24T03:58:42;9.60;84.90
51661;DHT22;37741;49.748;8.490;2023-02-24T04:01:21;9.60;84.90
51661;DHT22;37741;49.748;8.490;2023-02-24T04:06:53;9.60;85.00
51661;DHT22;37741;49.748;8.490;2023-02-24T04:12:20;9.60;85.00
51661;DHT22;37741;49.748;8.490;2023-02-24T04:17:48;9.60;85.10
51661;DHT22;37741;49.748;8.490;2023-02-24T04:20:17;9.50;84.90
51661;DHT22;37741;49.748;8.490;2023-02-24T04:22:47;9.50;85.00
51661;DHT22;37741;49.748;8.490;2023-02-24T04:25:20;9.50;85.00
51661;DHT22;37741;49.748;8.490;2023-02-24T04:27:53;9.50;85.00
51661;DHT22;37741;49.748;8.490;2023-02-24T04:30:21;9.50;85.10
51661;DHT22;37741;49.748;8.490;2023-02-24T04:32:47;9.50;85.10
51661;DHT22;37741;49.748;8.490;2023-02-24T04:35:14;9.50;85.10
51661;DHT22;37741;49.748;8.490;2023-02-24T04:37:41;9.50;85.20
51661;DHT22;37741;49.748;8.490;2023-02-24T04:40:11;9.50;85.10
51661;DHT22;37741;49.748;8.490;2023-02-24T04:42:38;9.50;85.20
51661;DHT22;37741;49.748;8.490;2023-02-24T04:45:30;9.50;85.50
51661;DHT22;37741;49.748;8.490;2023-02-24T04:47:58;9.50;85.20
51661;DHT22;37741;49.748;8.490;2023-02-24T04:50:29;9.50;85.30
51661;DHT22;37741;49.748;8.490;2023-02-24T04:52:58;9.50;85.20
51661;DHT22;37741;49.748;8.490;2023-02-24T04:55:30;9.50;85.20
51661;DHT22;37741;49.748;8.490;2023-02-24T04:57:59;9.40;85.20
51661;DHT22;37741;49.748;8.490;2023-02-24T05:00:26;9.50;85.20
51661;DHT22;37741;49.748;8.490;2023-02-24T05:02:58;9.50;85.20
51661;DHT22;37741;49.748;8.490;2023-02-24T05:05:26;9.40;85.20
51661;DHT22;37741;49.748;8.490;2023-02-24T05:07:53;9.40;85.20
51661;DHT22;37741;49.748;8.490;2023-02-24T05:10:20;9.40;85.20
51661;DHT22;37741;49.748;8.490;2023-02-24T05:12:55;9.40;85.20
51661;DHT22;37741;49.748;8.490;2023-02-24T05:15:24;9.40;85.20
51661;DHT22;37741;49.748;8.490;2023-02-24T05:18:06;9.40;85.20
51661;DHT22;37741;49.748;8.490;2023-02-24T05:20:35;9.40;85.20
51661;DHT22;37741;49.748;8.490;2023-02-24T05:23:24;9.40;85.20
51661;DHT22;37741;49.748;8.490;2023-02-24T05:25:50;9.40;85.20
51661;DHT22;37741;49.748;8.490;2023-02-24T05:28:20;9.40;85.20
51661;DHT22;37741;49.748;8.490;2023-02-24T05:30:53;9.40;85.20
51661;DHT22;37741;49.748;8.490;2023-02-24T05:33:20;9.40;85.10
51661;DHT22;37741;49.748;8.490;2023-02-24T05:35:47;9.30;84.90
51661;DHT22;37741;49.748;8.490;2023-02-24T05:38:13;9.30;85.00
51661;DHT22;37741;49.748;8.490;2023-02-24T05:40:46;9.30;85.00
51661;DHT22;37741;49.748;8.490;2023-02-24T05:43:14;9.30;85.00
51661;DHT22;37741;49.748;8.490;2023-02-24T05:45:44;9.30;85.60
51661;DHT22;37741;49.748;8.490;2023-02-24T05:48:13;9.30;85.00
51661;DHT22;37741;49.748;8.490;2023-02-24T05:50:41;9.30;85.10
51661;DHT22;37741;49.748;8.490;2023-02-24T05:53:16;9.30;85.20
51661;DHT22;37741;49.748;8.490;2023-02-24T05:55:43;9.30;85.20
51661;DHT22;37741;49.748;8.490;2023-02-24T05:58:09;9.30;85.20
51661;DHT22;37741;49.748;8.490;2023-02-24T06:00:35;9.30;85.30
51661;DHT22;37741;49.748;8.490;2023-02-24T06:03:04;9.30;85.30
51661;DHT22;37741;49.748;8.490;2023-02-24T06:05:42;9.30;85.30
51661;DHT22;37741;49.748;8.490;2023-02-24T06:08:08;9.20;85.20
51661;DHT22;37741;49.748;8.490;2023-02-24T06:10:37;9.20;85.20
51661;DHT22;37741;49.748;8.490;2023-02-24T06:13:05;9.20;85.20
51661;DHT22;37741;49.748;8.490;2023-02-24T06:15:32;9.20;85.20
51661;DHT22;37741;49.748;8.490;2023-02-24T06:17:59;9.20;85.30
51661;DHT22;37741;49.748;8.490;2023-02-24T06:20:27;9.20;85.30
51661;DHT22;37741;49.748;8.490;2023-02-24T06:22:54;9.20;85.30
51661;DHT22;37741;49.748;8.490;2023-02-24T06:25:23;9.20;85.30
51661;DHT22;37741;49.748;8.490;2023-02-24T06:27:52;9.20;85.40
51661;DHT22;37741;49.748;8.490;2023-02-24T06:30:21;9.10;85.40
51661;DHT22;37741;49.748;8.490;2023-02-24T06:32:48;9.10;85.30
51661;DHT22;37741;49.748;8.490;2023-02-24T06:35:14;9.20;85.40
51661;DHT22;37741;49.748;8.490;2023-02-24T06:37:40;9.10;85.40
51661;DHT22;37741;49.748;8.490;2023-02-24T06:40:06;9.10;85.20
51661;DHT22;37741;49.748;8.490;2023-02-24T06:42:46;9.10;85.30
51661;DHT22;37741;49.748;8.490;2023-02-24T06:45:12;9.10;85.20
51661;DHT22;37741;49.748;8.490;2023-02-24T06:47:39;9.10;85.30
51661;DHT22;37741;49.748;8.490;2023-02-24T06:50:09;9.10;85.40
51661;DHT22;37741;49.748;8.490;2023-02-24T06:52:35;9.10;85.10
51661;DHT22;37741;49.748;8.490;2023-02-24T06:55:01;9.10;85.10
51661;DHT22;37741;49.748;8.490;2023-02-24T06:57:31;9.10;85.30
51661;DHT22;37741;49.748;8.490;2023-02-24T07:00:00;9.00;85.40
51661;DHT22;37741;49.748;8.490;2023-02-24T07:02:40;9.10;85.50
51661;DHT22;37741;49.748;8.490;2023-02-24T07:05:06;9.00;85.30
51661;DHT22;37741;49.748;8.490;2023-02-24T07:07:39;9.00;85.20
51661;DHT22;37741;49.748;8.490;2023-02-24T07:10:11;9.00;85.50
51661;DHT22;37741;49.748;8.490;2023-02-24T07:12:38;9.00;85.30
51661;DHT22;37741;49.748;8.490;2023-02-24T07:15:09;9.00;85.50
51661;DHT22;37741;49.748;8.490;2023-02-24T07:17:34;9.00;85.30
51661;DHT22;37741;49.748;8.490;2023-02-24T07:20:01;9.00;85.40
51661;DHT22;37741;49.748;8.490;2023-02-24T07:22:36;9.00;85.00
51661;DHT22;37741;49.748;8.490;2023-02-24T07:25:03;9.00;85.00
51661;DHT22;37741;49.748;8.490;2023-02-24T07:27:29;8.90;85.10
51661;DHT22;37741;49.748;8.490;2023-02-24T07:29:54;8.90;85.40
51661;DHT22;37741;49.748;8.490;2023-02-24T07:32:21;8.90;85.20
51661;DHT22;37741;49.748;8.490;2023-02-24T07:34:47;8.90;85.50
51661;DHT22;37741;49.748;8.490;2023-02-24T07:37:13;8.90;85.50
51661;DHT22;37741;49.748;8.490;2023-02-24T07:39:39;8.90;85.10
51661;DHT22;37741;49.748;8.490;2023-02-24T07:42:08;8.90;85.50
51661;DHT22;37741;49.748;8.490;2023-02-24T07:44:34;8.90;85.60
51661;DHT22;37741;49.748;8.490;2023-02-24T07:46:59;8.90;85.60
51661;DHT22;37741;49.748;8.490;2023-02-24T07:49:25;8.90;84.90
51661;DHT22;37741;49.748;8.490;2023-02-24T07:51:54;8.90;85.40
51661;DHT22;37741;49.748;8.490;2023-02-24T07:54:23;8.90;85.50
51661;DHT22;37741;49.748;8.490;2023-02-24T07:56:50;8.90;85.60
51661;DHT22;37741;49.748;8.490;2023-02-24T07:59:32;8.90;85.40
51661;DHT22;37741;49.748;8.490;2023-02-24T08:01:59;8.90;85.50
51661;DHT22;37741;49.748;8.490;2023-02-24T08:04:29;9.00;85.60
51661;DHT22;37741;49.748;8.490;2023-02-24T08:06:55;8.90;85.50
51661;DHT22;37741;49.748;8.490;2023-02-24T08:09:30;8.90;85.40
51661;DHT22;37741;49.748;8.490;2023-02-24T08:12:13;8.90;85.40
51661;DHT22;37741;49.748;8.490;2023-02-24T08:14:47;8.90;86.10
51661;DHT22;37741;49.748;8.490;2023-02-24T08:17:21;8.90;85.50
51661;DHT22;37741;49.748;8.490;2023-02-24T08:19:49;8.90;85.40
51661;DHT22;37741;49.748;8.490;2023-02-24T08:22:25;8.90;85.20
51661;DHT22;37741;49.748;8.490;2023-02-24T08:24:53;9.00;84.50
51661;DHT22;37741;49.748;8.490;2023-02-24T08:27:21;8.90;84.20
51661;DHT22;37741;49.748;8.490;2023-02-24T08:29:49;8.90;84.00
51661;DHT22;37741;49.748;8.490;2023-02-24T08:32:25;8.90;83.70
51661;DHT22;37741;49.748;8.490;2023-02-24T08:34:50;8.90;83.80
51661;DHT22;37741;49.748;8.490;2023-02-24T08:37:22;8.90;83.70
51661;DHT22;37741;49.748;8.490;2023-02-24T08:39:49;8.90;83.60
51661;DHT22;37741;49.748;8.490;2023-02-24T08:42:19;8.90;83.70
51661;DHT22;37741;49.748;8.490;2023-02-24T08:44:44;8.90;83.30
51661;DHT22;37741;49.748;8.490;2023-02-24T08:47:10;8.90;83.40
51661;DHT22;37741;49.748;8.490;2023-02-24T08:49:38;8.90;83.20
51661;DHT22;37741;49.748;8.490;2023-02-24T08:52:05;8.90;83.10
51661;DHT22;37741;49.748;8.490;2023-02-24T08:54:32;8.90;83.80
51661;DHT22;37741;49.748;8.490;2023-02-24T08:56:58;9.00;83.70
51661;DHT22;37741;49.748;8.490;2023-02-24T08:59:34;9.00;83.60
51661;DHT22;37741;49.748;8.490;2023-02-24T09:02:12;9.00;83.90
51661;DHT22;37741;49.748;8.490;2023-02-24T09:04:57;9.00;84.30
51661;DHT22;37741;49.748;8.490;2023-02-24T09:07:24;9.00;83.60
51661;DHT22;37741;49.748;8.490;2023-02-24T09:09:51;9.00;83.60
51661;DHT22;37741;49.748;8.490;2023-02-24T09:12:22;9.00;82.80
51661;DHT22;37741;49.748;8.490;2023-02-24T09:14:55;9.10;83.10
51661;DHT22;37741;49.748;8.490;2023-02-24T09:17:23;9.10;83.60
51661;DHT22;37741;49.748;8.490;2023-02-24T09:20:22;9.10;83.80
51661;DHT22;37741;49.748;8.490;2023-02-24T09:23:10;9.10;83.20
51661;DHT22;37741;49.748;8.490;2023-02-24T09:25:45;9.10;83.20
51661;DHT22;37741;49.748;8.490;2023-02-24T09:30:46;9.10;82.70
51661;DHT22;37741;49.748;8.490;2023-02-24T09:35:54;9.10;83.40
51661;DHT22;37741;49.748;8.490;2023-02-24T09:38:27;9.10;83.40
51661;DHT22;37741;49.748;8.490;2023-02-24T09:44:03;9.20;83.10
51661;DHT22;37741;49.748;8.490;2023-02-24T09:46:37;9.20;83.00
51661;DHT22;37741;49.748;8.490;2023-02-24T09:49:13;9.20;82.50
51661;DHT22;37741;49.748;8.490;2023-02-24T09:51:39;9.20;82.10
51661;DHT22;37741;49.748;8.490;2023-02-24T09:54:19;9.20;82.10
51661;DHT22;37741;49.748;8.490;2023-02-24T09:57:13;9.20;82.60
51661;DHT22;37741;49.748;8.490;2023-02-24T09:59:56;9.30;81.90
51661;DHT22;37741;49.748;8.490;2023-02-24T10:02:57;9.30;81.40
51661;DHT22;37741;49.748;8.490;2023-02-24T10:05:35;9.30;82.00
51661;DHT22;37741;49.748;8.490;2023-02-24T10:08:17;9.30;82.20
51661;DHT22;37741;49.748;8.490;2023-02-24T10:10:50;9.30;82.40
51661;DHT22;37741;49.748;8.490;2023-02-24T10:13:33;9.30;81.40
51661;DHT22;37741;49.748;8.490;2023-02-24T10:16:02;9.30;82.10
51661;DHT22;37741;49.748;8.490;2023-02-24T10:21:13;9.40;80.60
51661;DHT22;37741;49.748;8.490;2023-02-24T10:23:55;9.40;80.10
51661;DHT22;37741;49.748;8.490;2023-02-24T10:26:40;9.40;80.30
51661;DHT22;37741;49.748;8.490;2023-02-24T10:32:37;9.50;80.90
51661;DHT22;37741;49.748;8.490;2023-02-24T10:35:18;9.50;81.20
51661;DHT22;37741;49.748;8.490;2023-02-24T10:37:45;9.50;80.90
51661;DHT22;37741;49.748;8.490;2023-02-24T10:40:12;9.50;80.20
51661;DHT22;37741;49.748;8.490;2023-02-24T10:42:49;9.50;79.20
51661;DHT22;37741;49.748;8.490;2023-02-24T10:45:21;9.60;79.00
51661;DHT22;37741;49.748;8.490;2023-02-24T10:47:58;9.60;79.10
51661;DHT22;37741;49.748;8.490;2023-02-24T10:50:41;9.60;80.30
51661;DHT22;37741;49.748;8.490;2023-02-24T10:53:13;9.70;80.60
51661;DHT22;37741;49.748;8.490;2023-02-24T10:55:58;9.70;81.20
51661;DHT22;37741;49.748;8.490;2023-02-24T10:59:09;9.70;80.30
51661;DHT22;37741;49.748;8.490;2023-02-24T11:02:18;9.70;81.50
51661;DHT22;37741;49.748;8.490;2023-02-24T11:04:55;9.70;81.70
51661;DHT22;37741;49.748;8.490;2023-02-24T11:07:41;9.80;81.30
51661;DHT22;37741;49.748;8.490;2023-02-24T11:10:21;9.80;81.50
51661;DHT22;37741;49.748;8.490;2023-02-24T11:13:14;9.90;80.70
51661;DHT22;37741;49.748;8.490;2023-02-24T11:15:59;9.90;80.60
51661;DHT22;37741;49.748;8.490;2023-02-24T11:18:47;9.90;80.20
51661;DHT22;37741;49.748;8.490;2023-02-24T11:21:17;10.00;80.00
51661;DHT22;37741;49.748;8.490;2023-02-24T11:23:43;10.00;79.50
51661;DHT22;37741;49.748;8.490;2023-02-24T11:26:31;10.00;79.20
51661;DHT22;37741;49.748;8.490;2023-02-24T11:32:05;10.10;79.30
51661;DHT22;37741;49.748;8.490;2023-02-24T11:37:45;10.10;78.80
51661;DHT22;37741;49.748;8.490;2023-02-24T11:40:23;10.20;78.70
51661;DHT22;37741;49.748;8.490;2023-02-24T11:43:19;10.20;78.20
51661;DHT22;37741;49.748;8.490;2023-02-24T11:45:52;10.20;78.10
51661;DHT22;37741;49.748;8.490;2023-02-24T11:48:23;10.20;78.80
51661;DHT22;37741;49.748;8.490;2023-02-24T11:50:53;10.20;78.60
51661;DHT22;37741;49.748;8.490;2023-02-24T11:53:33;10.30;79.00
51661;DHT22;37741;49.748;8.490;2023-02-24T11:58:44;10.30;79.10
51661;DHT22;37741;49.748;8.490;2023-02-24T12:01:40;10.30;79.70
51661;DHT22;37741;49.748;8.490;2023-02-24T12:07:35;10.40;79.50
51661;DHT22;37741;49.748;8.490;2023-02-24T12:10:24;10.40;79.90
51661;DHT22;37741;49.748;8.490;2023-02-24T12:15:49;10.40;79.10
51661;DHT22;37741;49.748;8.490;2023-02-24T12:18:33;10.40;78.90
51661;DHT22;37741;49.748;8.490;2023-02-24T12:21:07;10.50;78.80
51661;DHT22;37741;49.748;8.490;2023-02-24T12:23:41;10.50;78.90
51661;DHT22;37741;49.748;8.490;2023-02-24T12:29:14;10.60;78.80
51661;DHT22;37741;49.748;8.490;2023-02-24T12:40:28;10.80;76.50
51661;DHT22;37741;49.748;8.490;2023-02-24T12:52:12;10.80;75.80
51661;DHT22;37741;49.748;8.490;2023-02-24T12:57:26;10.90;73.60
51661;DHT22;37741;49.748;8.490;2023-02-24T12:59:53;10.90;75.10
51661;DHT22;37741;49.748;8.490;2023-02-24T13:02:53;10.90;74.10
51661;DHT22;37741;49.748;8.490;2023-02-24T13:05:28;11.00;74.40
51661;DHT22;37741;49.748;8.490;2023-02-24T13:10:47;11.00;72.30
51661;DHT22;37741;49.748;8.490;2023-02-24T13:15:54;11.10;70.70
51661;DHT22;37741;49.748;8.490;2023-02-24T13:18:29;11.10;70.70
51661;DHT22;37741;49.748;8.490;2023-02-24T13:21:28;11.10;71.50
51661;DHT22;37741;49.748;8.490;2023-02-24T13:23:59;11.20;70.30
51661;DHT22;37741;49.748;8.490;2023-02-24T13:26:30;11.20;69.80
51661;DHT22;37741;49.748;8.490;2023-02-24T13:29:02;11.20;70.00
51661;DHT22;37741;49.748;8.490;2023-02-24T13:31:59;11.20;70.20
51661;DHT22;37741;49.748;8.490;2023-02-24T13:36:50;11.20;71.10
51661;DHT22;37741;49.748;8.490;2023-02-24T13:39:30;11.30;69.50
51661;DHT22;37741;49.748;8.490;2023-02-24T13:44:51;11.30;70.90
51661;DHT22;37741;49.748;8.490;2023-02-24T13:50:18;11.30;69.10
51661;DHT22;37741;49.748;8.490;2023-02-24T13:53:04;11.30;69.40
51661;DHT22;37741;49.748;8.490;2023-02-24T13:56:00;11.30;68.00
51661;DHT22;37741;49.748;8.490;2023-02-24T14:01:10;11.40;68.00
51661;DHT22;37741;49.748;8.490;2023-02-24T14:03:40;11.40;66.90
51661;DHT22;37741;49.748;8.490;2023-02-24T14:06:30;11.40;67.50
51661;DHT22;37741;49.748;8.490;2023-02-24T14:08:58;11.40;67.20
51661;DHT22;37741;49.748;8.490;2023-02-24T14:11:28;11.50;66.50
51661;DHT22;37741;49.748;8.490;2023-02-24T14:13:56;11.40;67.00
51661;DHT22;37741;49.748;8.490;2023-02-24T14:16:42;11.50;67.80
51661;DHT22;37741;49.748;8.490;2023-02-24T14:19:12;11.40;68.60
51661;DHT22;37741;49.748;8.490;2023-02-24T14:21:47;11.40;67.40
51661;DHT22;37741;49.748;8.490;2023-02-24T14:24:13;11.50;66.10
51661;DHT22;37741;49.748;8.490;2023-02-24T14:26:45;11.40;64.60
51661;DHT22;37741;49.748;8.490;2023-02-24T14:29:15;11.50;64.50
51661;DHT22;37741;49.748;8.490;2023-02-24T14:31:49;11.50;65.00
51661;DHT22;37741;49.748;8.490;2023-02-24T14:34:19;11.50;64.50
51661;DHT22;37741;49.748;8.490;2023-02-24T14:36:49;11.50;63.80
51661;DHT22;37741;49.748;8.490;2023-02-24T14:39:22;11.50;65.00
51661;DHT22;37741;49.748;8.490;2023-02-24T14:41:50;11.50;63.60
51661;DHT22;37741;49.748;8.490;2023-02-24T14:44:29;11.50;65.40
51661;DHT22;37741;49.748;8.490;2023-02-24T14:46:57;11.50;66.70
51661;DHT22;37741;49.748;8.490;2023-02-24T14:49:29;11.50;64.00
51661;DHT22;37741;49.748;8.490;2023-02-24T14:55:03;11.50;65.60
51661;DHT22;37741;49.748;8.490;2023-02-24T14:57:40;11.50;65.10
51661;DHT22;37741;49.748;8.490;2023-02-24T15:00:20;11.50;64.50
51661;DHT22;37741;49.748;8.490;2023-02-24T15:05:46;11.40;65.20
51661;DHT22;37741;49.748;8.490;2023-02-24T15:08:25;11.40;65.70
51661;DHT22;37741;49.748;8.490;2023-02-24T15:10:52;11.40;66.50
51661;DHT22;37741;49.748;8.490;2023-02-24T15:16:08;11.40;65.00
51661;DHT22;37741;49.748;8.490;2023-02-24T15:18:34;11.40;64.90
51661;DHT22;37741;49.748;8.490;2023-02-24T15:21:02;11.40;65.30
51661;DHT22;37741;49.748;8.490;2023-02-24T15:23:32;11.40;65.90
51661;DHT22;37741;49.748;8.490;2023-02-24T15:25:58;11.40;66.00
51661;DHT22;37741;49.748;8.490;2023-02-24T15:28:25;11.40;65.00
51661;DHT22;37741;49.748;8.490;2023-02-24T15:30:58;11.40;65.00
51661;DHT22;37741;49.748;8.490;2023-02-24T15:33:30;11.40;66.00
51661;DHT22;37741;49.748;8.490;2023-02-24T15:35:58;11.40;65.80
51661;DHT22;37741;49.748;8.490;2023-02-24T15:38:33;11.40;65.50
51661;DHT22;37741;49.748;8.490;2023-02-24T15:41:01;11.40;64.70
51661;DHT22;37741;49.748;8.490;2023-02-24T15:45:59;11.40;64.90
51661;DHT22;37741;49.748;8.490;2023-02-24T15:48:24;11.40;65.20
51661;DHT22;37741;49.748;8.490;2023-02-24T15:50:54;11.40;64.60
51661;DHT22;37741;49.748;8.490;2023-02-24T15:53:24;11.40;65.10
51661;DHT22;37741;49.748;8.490;2023-02-24T15:55:50;11.40;65.00
51661;DHT22;37741;49.748;8.490;2023-02-24T15:58:17;11.40;65.40
51661;DHT22;37741;49.748;8.490;2023-02-24T16:00:44;11.40;65.30
51661;DHT22;37741;49.748;8.490;2023-02-24T16:03:11;11.40;65.00
51661;DHT22;37741;49.748;8.490;2023-02-24T16:05:37;11.30;65.40
51661;DHT22;37741;49.748;8.490;2023-02-24T16:08:03;11.30;66.80
51661;DHT22;37741;49.748;8.490;2023-02-24T16:10:29;11.30;65.20
51661;DHT22;37741;49.748;8.490;2023-02-24T16:12:59;11.30;65.50
51661;DHT22;37741;49.748;8.490;2023-02-24T16:15:35;11.30;66.20
51661;DHT22;37741;49.748;8.490;2023-02-24T16:18:13;11.30;66.80
51661;DHT22;37741;49.748;8.490;2023-02-24T16:20:43;11.20;65.80
51661;DHT22;37741;49.748;8.490;2023-02-24T16:23:09;11.20;65.80
51661;DHT22;37741;49.748;8.490;2023-02-24T16:25:38;11.20;66.20
51661;DHT22;37741;49.748;8.490;2023-02-24T16:28:04;11.20;65.80
51661;DHT22;37741;49.748;8.490;2023-02-24T16:30:30;11.20;65.70
51661;DHT22;37741;49.748;8.490;2023-02-24T16:32:57;11.20;66.70
51661;DHT22;37741;49.748;8.490;2023-02-24T16:35:24;11.20;66.60
51661;DHT22;37741;49.748;8.490;2023-02-24T16:37:50;11.10;66.00
51661;DHT22;37741;49.748;8.490;2023-02-24T16:40:26;11.10;67.20
51661;DHT22;37741;49.748;8.490;2023-02-24T16:42:54;11.10;65.40
51661;DHT22;37741;49.748;8.490;2023-02-24T16:45:20;11.10;65.90
51661;DHT22;37741;49.748;8.490;2023-02-24T16:47:49;11.00;64.70
51661;DHT22;37741;49.748;8.490;2023-02-24T16:50:20;11.00;64.20
51661;DHT22;37741;49.748;8.490;2023-02-24T16:52:47;11.10;65.40
51661;DHT22;37741;49.748;8.490;2023-02-24T16:55:13;11.00;64.90
51661;DHT22;37741;49.748;8.490;2023-02-24T16:57:39;11.00;63.90
51661;DHT22;37741;49.748;8.490;2023-02-24T17:00:06;10.90;63.90
51661;DHT22;37741;49.748;8.490;2023-02-24T17:02:31;10.90;63.50
51661;DHT22;37741;49.748;8.490;2023-02-24T17:04:57;10.90;63.70
51661;DHT22;37741;49.748;8.490;2023-02-24T17:07:22;10.90;63.40
51661;DHT22;37741;49.748;8.490;2023-02-24T17:09:48;10.90;63.30
51661;DHT22;37741;49.748;8.490;2023-02-24T17:12:16;10.80;62.90
51661;DHT22;37741;49.748;8.490;2023-02-24T17:14:43;10.90;64.10
51661;DHT22;37741;49.748;8.490;2023-02-24T17:17:09;10.80;64.80
51661;DHT22;37741;49.748;8.490;2023-02-24T17:19:36;10.80;64.00
51661;DHT22;37741;49.748;8.490;2023-02-24T17:22:02;10.80;63.90
51661;DHT22;37741;49.748;8.490;2023-02-24T17:24:27;10.80;64.70
51661;DHT22;37741;49.748;8.490;2023-02-24T17:26:54;10.80;63.70
51661;DHT22;37741;49.748;8.490;2023-02-24T17:29:23;10.70;63.40
51661;DHT22;37741;49.748;8.490;2023-02-24T17:31:48;10.70;64.00
51661;DHT22;37741;49.748;8.490;2023-02-24T17:34:14;10.70;63.70
51661;DHT22;37741;49.748;8.490;2023-02-24T17:36:39;10.70;63.40
51661;DHT22;37741;49.748;8.490;2023-02-24T17:39:05;10.70;63.20
51661;DHT22;37741;49.748;8.490;2023-02-24T17:41:31;10.60;63.20
51661;DHT22;37741;49.748;8.490;2023-02-24T17:43:56;10.60;64.60
51661;DHT22;37741;49.748;8.490;2023-02-24T17:46:22;10.60;65.10
51661;DHT22;37741;49.748;8.490;2023-02-24T17:48:47;10.50;66.00
51661;DHT22;37741;49.748;8.490;2023-02-24T17:51:14;10.50;66.80
51661;DHT22;37741;49.748;8.490;2023-02-24T17:53:40;10.50;67.40
51661;DHT22;37741;49.748;8.490;2023-02-24T17:56:06;10.40;68.10